Terminal Aerodrome Forecast
Issued by NWS

Home | Current Version | Previous Version | Text Only | Print | Product List | Glossary On
Versions: 1 2 3 4 5 6 7 8 9 10 11 12 13
177
FTUS46 KSEW 231131
TAFOLM
TAF
KOLM 231131Z 2312/2412 17004KT P6SM FEW006 SCT250
      TEMPO 2312/2313 6SM BR BKN006
     FM231300 19005KT 5SM BR OVC006
     FM231800 23006KT P6SM BKN020 BKN250
     FM232000 21006KT P6SM SCT030 BKN250
     FM240400 VRB03KT P6SM SCT020 BKN250
     FM240900 VRB03KT 5SM BR BKN015=

USA.gov is the U.S. government's official web portal to all federal, state and local government web resources and services.